Hlavní strana
METAR-TAF:

METAR-TAF

Letiště :

Ørsta-Volda, Norsko

zeměpisná šířka: 62-11N, zeměpisná délka: 006-04E, výška: 7 m

Aktuální stav počasí

Zpráva byla vytvořena před 1 hodinou a 2 minutami, v 19:50 UTC
Bezvětří
Teplota -2°C
Vlhkost vzduchu 86%
Tlak 994 hPa
Viditelnost 10 km a více
Oblačno až skoro zataženo ve výšce 5000 ft

METAR: ENOV 121950Z 00000KT 9999 BKN050 M02/M04 Q0994 RMK WIND 2175FT VRB01KT

Čas: 21:52 (20:52 UTC)


TAF: chybějící

Stav a předpovědi počasí z více než 4 000 letišť (zprávy METAR a TAF).

Červené a žluté tečky na mapě představují dostupné meteorologické stanice.

Když kurzor umístíte na tečku, zobrazí se název stanice.

Pak kliknutím zobrazíte stav a předpověď počasí.

Chcete-li změnit mapu, kliknutím na zelené tlačítko se znaménkem +mapu přiblížíte, kliknutím na zelené tlačítko se znaménkem – mapu oddálíte a kliknutím na zelené šipky přejdete na sousední mapy.


METAR-TAF: